Time;durP1;ratioP1;P1;durP2;ratioP2;P2;SDS_P1;SDS_P2;PMS_P1;PMS_P2;Temp;Humidity;BMP_temperature;BMP_pressure;BME280_temperature;BME280_humidity;BME280_pressure;Samples;Min_cycle;Max_cycle;Signal;HPM_P1;HPM_P2
2023/11/19 10:38:28;;;;;;;2.27;1.30;;;23.40;68.10;;;;;;5094384;22;20497;-87
2023/11/19 10:40:55;;;;;;;2.30;1.43;;;23.30;66.20;;;;;;5038546;28;20445;-96
2023/11/19 10:43:23;;;;;;;3.63;1.50;;;23.30;67.60;;;;;;5039037;28;20435;-91
2023/11/19 10:45:50;;;;;;;3.60;1.70;;;23.30;68.30;;;;;;5036706;28;20444;-86
2023/11/19 10:48:27;;;;;;;1.63;1.00;;;23.40;68.20;;;;;;5048519;23;20484;-84
2023/11/19 10:50:55;;;;;;;3.30;1.17;;;23.70;68.40;;;;;;5075241;28;20503;-85
2023/11/19 10:53:25;;;;;;;3.57;1.40;;;23.70;68.20;;;;;;5074757;28;20432;-85
2023/11/19 10:55:56;;;;;;;2.23;1.10;;;23.70;68.00;;;;;;5075026;28;20505;-85
2023/11/19 10:58:23;;;;;;;3.10;1.57;;;23.70;68.00;;;;;;5074862;28;20772;-85
2023/11/19 11:00:53;;;;;;;1.87;1.40;;;23.70;68.00;;;;;;5078732;28;20448;-85
2023/11/19 11:03:22;;;;;;;3.47;1.40;;;23.80;68.20;;;;;;5082387;28;20900;-85
2023/11/19 11:05:50;;;;;;;3.20;1.60;;;23.80;68.20;;;;;;5083486;28;20468;-85
2023/11/19 11:08:17;;;;;;;2.80;1.80;;;23.80;68.30;;;;;;5084186;28;20487;-85
2023/11/19 11:10:47;;;;;;;4.20;1.63;;;23.80;68.40;;;;;;5076242;28;20447;-85
2023/11/19 11:13:18;;;;;;;3.60;1.10;;;23.80;68.40;;;;;;5078608;28;21011;-85
2023/11/19 11:15:46;;;;;;;2.07;1.33;;;23.80;68.40;;;;;;5076308;22;21002;-85
2023/11/19 11:18:14;;;;;;;4.03;1.40;;;23.90;68.50;;;;;;5058549;28;20441;-85
2023/11/19 11:20:42;;;;;;;2.67;1.20;;;23.90;68.60;;;;;;5066018;28;20985;-85
2023/11/19 11:23:37;;;;;;;3.97;1.50;;;23.80;68.60;;;;;;5074882;28;20441;-85
2023/11/19 11:26:23;;;;;;;3.63;1.30;;;23.80;68.60;;;;;;5076056;28;20527;-85
2023/11/19 11:28:59;;;;;;;3.60;1.70;;;23.70;68.50;;;;;;5074555;28;20490;-86
2023/11/19 11:31:35;;;;;;;1.77;1.30;;;23.70;67.70;;;;;;5075999;28;20494;-87
2023/11/19 11:34:25;;;;;;;2.63;1.67;;;23.70;68.60;;;;;;5077996;28;20444;-87
2023/11/19 11:37:01;;;;;;;2.27;1.43;;;23.70;68.70;;;;;;5077667;28;20550;-87
2023/11/19 11:39:30;;;;;;;2.53;1.10;;;23.70;68.80;;;;;;5078045;28;20542;-87
2023/11/19 11:42:30;;;;;;;3.80;1.30;;;23.70;68.80;;;;;;5077179;28;20484;-87
2023/11/19 11:45:04;;;;;;;1.73;1.20;;;23.70;68.80;;;;;;5072351;28;20444;-88
2023/11/19 11:48:19;;;;;;;3.10;1.60;;;23.80;69.00;;;;;;5076497;28;20476;-86
2023/11/19 11:50:52;;;;;;;1.60;1.00;;;23.70;68.90;;;;;;5074618;28;20494;-86
2023/11/19 11:53:22;;;;;;;1.93;1.60;;;23.70;68.90;;;;;;5073464;28;20439;-87
2023/11/19 11:56:00;;;;;;;3.60;1.80;;;23.70;68.90;;;;;;5074297;28;20445;-87
2023/11/19 11:58:42;;;;;;;3.10;1.40;;;23.70;69.10;;;;;;5073572;28;20528;-87
2023/11/19 12:01:20;;;;;;;1.60;0.90;;;23.70;69.00;;;;;;5073263;28;20467;-87
2023/11/19 12:03:47;;;;;;;3.80;1.60;;;23.70;68.90;;;;;;5074593;28;20452;-90
2023/11/19 12:06:14;;;;;;;2.37;1.37;;;23.70;68.70;;;;;;5075012;28;20447;-89
2023/11/19 12:08:41;;;;;;;3.43;1.33;;;23.60;68.50;;;;;;5075993;28;20480;-89
2023/11/19 12:11:08;;;;;;;3.20;1.30;;;23.60;68.60;;;;;;5075416;28;20445;-89
2023/11/19 12:13:54;;;;;;;4.03;1.63;;;23.70;68.70;;;;;;5075760;28;20462;-89
2023/11/19 12:16:22;;;;;;;3.23;1.13;;;23.70;68.70;;;;;;5075205;28;20482;-95
2023/11/19 12:18:49;;;;;;;2.60;1.27;;;23.70;68.60;;;;;;5074014;28;20453;-94
2023/11/19 12:21:29;;;;;;;6.20;2.00;;;23.60;65.90;;;;;;5075474;28;20474;-94
2023/11/19 12:24:02;;;;;;;7.73;2.03;;;23.40;65.10;;;;;;5075807;28;20433;-89
2023/11/19 12:26:36;;;;;;;1.63;1.37;;;23.30;66.00;;;;;;5074356;28;20439;-90
2023/11/19 12:29:07;;;;;;;2.80;1.50;;;23.40;68.50;;;;;;5074741;28;20476;-90
2023/11/19 12:31:36;;;;;;;2.80;1.57;;;23.40;68.50;;;;;;5076212;28;20486;-89
2023/11/19 12:34:13;;;;;;;4.50;1.63;;;23.50;68.50;;;;;;5075300;28;20531;-89
2023/11/19 12:36:43;;;;;;;2.67;1.73;;;23.50;68.30;;;;;;5074004;28;20432;-90
2023/11/19 12:39:12;;;;;;;5.20;1.80;;;23.60;68.20;;;;;;5074654;28;20544;-89
2023/11/19 12:41:55;;;;;;;4.27;1.70;;;23.60;68.10;;;;;;5074641;28;20436;-89
2023/11/19 12:44:22;;;;;;;4.87;2.07;;;23.60;68.00;;;;;;5074808;28;20451;-90
2023/11/19 12:47:02;;;;;;;3.97;1.70;;;23.60;68.00;;;;;;5075495;28;20539;-89
2023/11/19 12:49:29;;;;;;;8.80;2.20;;;23.60;68.00;;;;;;5073557;28;20803;-89
2023/11/19 12:51:55;;;;;;;2.83;1.03;;;23.60;68.00;;;;;;5073821;28;20485;-89
2023/11/19 12:54:33;;;;;;;4.20;1.20;;;23.60;68.00;;;;;;5074710;28;20635;-89
2023/11/19 12:57:00;;;;;;;4.07;1.57;;;23.60;68.00;;;;;;5074580;28;20466;-89
2023/11/19 12:59:28;;;;;;;2.50;1.60;;;23.60;68.00;;;;;;5074931;28;20471;-94
2023/11/19 13:01:56;;;;;;;2.73;1.60;;;23.60;68.00;;;;;;5073540;28;20439;-88
2023/11/19 13:04:30;;;;;;;1.70;1.40;;;23.60;67.30;;;;;;5073235;28;20433;-87
2023/11/19 13:06:57;;;;;;;8.00;1.63;;;23.60;69.00;;;;;;5072978;28;20432;-89
2023/11/19 13:09:25;;;;;;;3.63;1.33;;;23.60;68.20;;;;;;5072669;28;20490;-87
2023/11/19 13:11:52;;;;;;;3.40;1.37;;;23.60;68.20;;;;;;5073053;28;20523;-91
2023/11/19 13:14:20;;;;;;;2.80;1.67;;;23.50;67.00;;;;;;5072710;28;20468;-93
2023/11/19 13:16:47;;;;;;;3.03;1.40;;;23.40;67.30;;;;;;5075975;28;20455;-87
2023/11/19 13:19:16;;;;;;;3.83;1.60;;;23.40;68.40;;;;;;5076542;28;20428;-86
2023/11/19 13:21:46;;;;;;;2.60;1.60;;;23.50;68.50;;;;;;5076602;28;20436;-87
2023/11/19 13:24:13;;;;;;;3.60;1.30;;;23.60;68.60;;;;;;5076499;28;20439;-87
2023/11/19 13:26:40;;;;;;;4.00;1.43;;;23.60;68.40;;;;;;5076430;28;20475;-87
2023/11/19 13:29:07;;;;;;;3.67;1.20;;;23.60;68.40;;;;;;5076290;28;20564;-87
2023/11/19 13:31:34;;;;;;;7.00;1.67;;;23.60;68.10;;;;;;5076158;28;20911;-87
2023/11/19 13:34:01;;;;;;;3.93;1.43;;;23.70;68.30;;;;;;5076186;28;20478;-87
2023/11/19 13:36:27;;;;;;;5.20;1.67;;;23.70;68.20;;;;;;5076370;28;20436;-87
2023/11/19 13:38:58;;;;;;;3.60;1.70;;;23.70;68.20;;;;;;5076041;28;20447;-87
2023/11/19 13:41:26;;;;;;;4.20;1.70;;;23.70;68.20;;;;;;5076102;28;20523;-87
2023/11/19 13:43:53;;;;;;;2.23;1.43;;;23.70;68.20;;;;;;5075889;28;20479;-89
2023/11/19 13:46:20;;;;;;;4.40;1.50;;;23.70;68.20;;;;;;5076076;28;20466;-87
2023/11/19 13:48:48;;;;;;;6.53;1.60;;;23.70;68.20;;;;;;5075613;28;20486;-87
2023/11/19 13:51:15;;;;;;;3.20;1.50;;;23.70;68.20;;;;;;5075678;28;20492;-88
2023/11/19 13:53:43;;;;;;;4.17;1.57;;;23.70;68.20;;;;;;5075795;28;20523;-87
2023/11/19 13:56:11;;;;;;;3.53;1.70;;;23.70;68.30;;;;;;5075772;28;20436;-87
2023/11/19 13:58:39;;;;;;;4.93;1.60;;;23.70;68.40;;;;;;5075801;28;20434;-87
2023/11/19 14:01:08;;;;;;;3.80;1.20;;;23.60;68.30;;;;;;5075465;28;20441;-87
2023/11/19 14:03:34;;;;;;;2.00;1.37;;;23.70;68.50;;;;;;5075714;28;20536;-87
2023/11/19 14:06:02;;;;;;;3.40;1.63;;;23.60;68.30;;;;;;5075648;28;20444;-86
2023/11/19 14:08:29;;;;;;;4.77;1.60;;;23.60;68.30;;;;;;5075387;28;20480;-87
2023/11/19 14:10:56;;;;;;;2.13;1.30;;;23.70;68.40;;;;;;5075539;28;20443;-86
2023/11/19 14:13:24;;;;;;;2.70;1.50;;;23.70;68.50;;;;;;5075838;28;20513;-87
2023/11/19 14:15:51;;;;;;;3.00;1.67;;;23.70;68.30;;;;;;5075429;28;20889;-86
2023/11/19 14:18:18;;;;;;;3.10;1.60;;;23.70;68.40;;;;;;5075504;28;20947;-87
2023/11/19 14:20:45;;;;;;;3.07;1.20;;;23.70;68.40;;;;;;5075394;28;20803;-87
2023/11/19 14:23:12;;;;;;;7.70;1.43;;;23.70;68.50;;;;;;5075254;28;20523;-87
2023/11/19 14:25:39;;;;;;;4.00;1.40;;;23.60;68.40;;;;;;5075276;28;20468;-87
2023/11/19 14:28:07;;;;;;;2.37;1.70;;;23.60;68.40;;;;;;5075205;28;20437;-87
2023/11/19 14:30:35;;;;;;;2.93;1.47;;;23.60;68.40;;;;;;5075384;28;20486;-87
2023/11/19 14:33:03;;;;;;;4.03;1.30;;;23.60;68.30;;;;;;5075198;28;20535;-87
2023/11/19 14:35:32;;;;;;;2.70;1.30;;;23.60;68.30;;;;;;5074438;28;20448;-87
2023/11/19 14:37:59;;;;;;;3.80;1.33;;;23.60;68.30;;;;;;5072763;28;20788;-88
2023/11/19 14:40:26;;;;;;;2.67;1.60;;;23.60;68.40;;;;;;5092960;28;20542;-93
2023/11/19 14:42:52;;;;;;;2.47;1.20;;;23.50;67.40;;;;;;5095056;28;20440;-89
2023/11/19 14:45:19;;;;;;;2.43;1.37;;;23.40;66.10;;;;;;5094713;28;21001;-89
2023/11/19 14:47:47;;;;;;;2.47;1.30;;;23.30;66.00;;;;;;5088762;28;20536;-88
2023/11/19 14:50:14;;;;;;;3.23;1.17;;;23.20;67.10;;;;;;5074236;28;20579;-87
2023/11/19 14:52:41;;;;;;;3.10;1.60;;;23.20;67.70;;;;;;5074196;28;20536;-87
2023/11/19 14:55:09;;;;;;;2.07;1.40;;;23.20;68.00;;;;;;5074102;28;20442;-88
2023/11/19 14:57:38;;;;;;;7.17;1.53;;;23.30;68.20;;;;;;5073888;28;20795;-87
2023/11/19 15:00:12;;;;;;;2.70;1.30;;;23.30;68.20;;;;;;5074019;28;20443;-86
2023/11/19 15:02:40;;;;;;;2.33;1.27;;;23.30;68.10;;;;;;5073987;28;21024;-90
2023/11/19 15:05:10;;;;;;;4.33;2.13;;;23.40;67.70;;;;;;5074157;28;20436;-91
2023/11/19 15:07:37;;;;;;;3.13;1.60;;;23.30;66.60;;;;;;5075267;28;20439;-95
2023/11/19 15:10:09;;;;;;;5.40;1.93;;;23.20;66.80;;;;;;5074534;28;20484;-95
2023/11/19 15:12:39;;;;;;;3.57;1.73;;;23.10;66.30;;;;;;5074467;28;20919;-95
2023/11/19 15:15:07;;;;;;;3.70;1.20;;;23.10;66.50;;;;;;5074561;28;20545;-95
2023/11/19 15:17:35;;;;;;;7.03;1.63;;;23.00;66.60;;;;;;5074200;28;20444;-92
2023/11/19 15:20:02;;;;;;;4.07;1.40;;;22.90;66.90;;;;;;5074015;28;20471;-95
2023/11/19 15:22:31;;;;;;;3.47;1.30;;;22.90;67.00;;;;;;5074442;28;20533;-95
2023/11/19 15:24:58;;;;;;;3.10;1.47;;;22.80;67.10;;;;;;5074237;28;20480;-94
2023/11/19 15:27:24;;;;;;;2.87;1.43;;;22.80;67.40;;;;;;5074981;28;20447;-95
2023/11/19 15:29:52;;;;;;;2.80;1.77;;;22.80;67.40;;;;;;5074265;28;20572;-94
2023/11/19 15:32:19;;;;;;;2.63;1.50;;;22.80;67.50;;;;;;5074275;28;20494;-95
2023/11/19 15:34:46;;;;;;;3.13;1.60;;;22.80;67.60;;;;;;5073858;28;20447;-94
2023/11/19 15:37:14;;;;;;;3.10;1.50;;;22.70;67.50;;;;;;5073738;28;20480;-94
2023/11/19 15:39:42;;;;;;;1.60;1.40;;;22.70;67.60;;;;;;5073565;28;20445;-95
2023/11/19 15:42:11;;;;;;;3.13;1.20;;;22.70;67.60;;;;;;5074544;28;20448;-94
2023/11/19 15:44:39;;;;;;;2.00;1.17;;;22.70;67.60;;;;;;5074013;28;20446;-94
2023/11/19 15:47:06;;;;;;;2.53;1.33;;;22.70;67.60;;;;;;5074024;28;20443;-92
2023/11/19 15:49:33;;;;;;;2.77;1.57;;;22.70;67.60;;;;;;5073845;28;20571;-94
2023/11/19 15:52:00;;;;;;;1.80;1.33;;;22.70;67.60;;;;;;5074018;28;20858;-94
2023/11/19 15:54:27;;;;;;;2.47;1.20;;;22.60;67.60;;;;;;5073971;28;20443;-94
2023/11/19 15:56:55;;;;;;;2.70;1.67;;;22.60;67.70;;;;;;5073835;28;20539;-92
2023/11/19 15:59:22;;;;;;;1.60;1.20;;;22.60;67.60;;;;;;5073807;28;20854;-94
2023/11/19 16:01:49;;;;;;;1.30;1.10;;;22.60;67.60;;;;;;5073670;28;20522;-93
2023/11/19 16:04:16;;;;;;;2.93;1.33;;;22.60;67.70;;;;;;5074081;28;20884;-94
2023/11/19 16:06:43;;;;;;;2.03;1.17;;;22.60;67.70;;;;;;5073917;28;20531;-92
2023/11/19 16:09:14;;;;;;;2.50;1.27;;;22.60;67.70;;;;;;5073896;28;20487;-93
2023/11/19 16:11:43;;;;;;;1.80;1.07;;;22.60;67.70;;;;;;5074670;28;20758;-94
2023/11/19 16:14:12;;;;;;;2.47;1.20;;;22.60;67.70;;;;;;5074573;28;20452;-92
2023/11/19 16:16:39;;;;;;;1.70;1.30;;;22.60;67.70;;;;;;5053790;28;20437;-95
2023/11/19 16:19:06;;;;;;;2.10;1.27;;;22.50;67.60;;;;;;5053572;28;20448;-94
2023/11/19 16:21:34;;;;;;;1.57;1.13;;;22.60;67.70;;;;;;5053476;28;20437;-94
2023/11/19 16:24:02;;;;;;;1.67;1.43;;;22.60;67.70;;;;;;5053644;28;20452;-94
2023/11/19 16:26:30;;;;;;;1.80;1.50;;;22.60;67.60;;;;;;5053623;28;20503;-94
2023/11/19 16:28:57;;;;;;;2.10;1.50;;;22.50;67.60;;;;;;5054229;28;20500;-92
2023/11/19 16:31:25;;;;;;;1.43;1.10;;;22.60;67.70;;;;;;5053060;28;20537;-94
2023/11/19 16:33:52;;;;;;;1.93;1.30;;;22.60;67.60;;;;;;5053546;28;20434;-95
2023/11/19 16:36:19;;;;;;;1.70;1.40;;;22.50;67.50;;;;;;5053101;28;20451;-94
2023/11/19 16:38:47;;;;;;;3.10;1.20;;;22.60;67.60;;;;;;5053206;28;20449;-94
2023/11/19 16:41:19;;;;;;;2.00;1.20;;;22.60;67.60;;;;;;5053263;28;20449;-94
2023/11/19 16:43:45;;;;;;;1.30;1.07;;;22.50;67.50;;;;;;5053303;28;20442;-94
2023/11/19 16:46:12;;;;;;;2.53;1.33;;;22.50;67.50;;;;;;5053255;28;20545;-95
2023/11/19 16:48:40;;;;;;;2.60;1.30;;;22.50;67.40;;;;;;5053236;28;20445;-94
2023/11/19 16:51:13;;;;;;;2.60;1.93;;;22.50;67.50;;;;;;5057160;28;20583;-95
2023/11/19 16:53:45;;;;;;;1.83;1.30;;;22.50;67.50;;;;;;5057903;28;20441;-94
2023/11/19 16:56:12;;;;;;;2.33;1.20;;;22.50;67.60;;;;;;5057004;28;20444;-92
2023/11/19 16:58:41;;;;;;;2.87;1.20;;;22.50;67.50;;;;;;5056768;28;20451;-93
2023/11/19 17:01:09;;;;;;;1.40;1.17;;;22.50;67.50;;;;;;5057474;28;20453;-94
2023/11/19 17:03:36;;;;;;;2.23;1.30;;;22.50;67.60;;;;;;5057319;28;21019;-95
2023/11/19 17:06:05;;;;;;;1.40;1.27;;;22.50;67.60;;;;;;5056653;28;20447;-95
2023/11/19 17:08:33;;;;;;;1.73;1.23;;;22.40;67.50;;;;;;5057497;28;20455;-94
2023/11/19 17:11:00;;;;;;;2.23;1.07;;;22.50;67.60;;;;;;5056866;28;20584;-93
2023/11/19 17:13:27;;;;;;;1.40;1.10;;;22.50;67.60;;;;;;5056664;28;20532;-94
2023/11/19 17:15:54;;;;;;;2.00;1.57;;;22.40;67.60;;;;;;5070757;28;20472;-94
2023/11/19 17:18:21;;;;;;;3.13;1.37;;;22.40;67.50;;;;;;5076592;28;20978;-94
2023/11/19 17:20:48;;;;;;;2.17;1.30;;;22.50;67.60;;;;;;5076802;28;20623;-95
2023/11/19 17:23:17;;;;;;;1.90;1.40;;;22.50;67.60;;;;;;5076705;28;20487;-95
2023/11/19 17:25:44;;;;;;;2.33;1.20;;;22.40;67.50;;;;;;5076745;28;20861;-94
2023/11/19 17:28:10;;;;;;;2.23;1.30;;;22.40;67.50;;;;;;5076601;28;20470;-95
2023/11/19 17:30:38;;;;;;;3.73;1.20;;;22.40;67.50;;;;;;5076287;28;20840;-95
2023/11/19 17:33:06;;;;;;;2.47;1.17;;;22.50;67.60;;;;;;5076619;28;20800;-95
2023/11/19 17:35:33;;;;;;;2.00;0.97;;;22.50;67.60;;;;;;5076240;28;20453;-94
2023/11/19 17:38:00;;;;;;;7.53;1.50;;;22.50;67.60;;;;;;5059546;28;20451;-93
2023/11/19 17:40:28;;;;;;;2.20;1.00;;;22.50;67.60;;;;;;5076272;28;20445;-92
2023/11/19 17:42:55;;;;;;;2.20;1.40;;;22.50;67.60;;;;;;5076295;28;20876;-93
2023/11/19 17:45:22;;;;;;;1.97;1.10;;;22.40;67.40;;;;;;5076384;28;20806;-92
2023/11/19 17:47:50;;;;;;;1.50;1.10;;;22.40;67.40;;;;;;5075910;28;20436;-93
2023/11/19 17:50:16;;;;;;;1.53;1.10;;;22.50;67.60;;;;;;5076220;28;20494;-93
2023/11/19 17:52:46;;;;;;;1.70;1.13;;;22.40;67.40;;;;;;5076376;28;20494;-95
2023/11/19 17:55:13;;;;;;;1.20;1.00;;;22.50;67.60;;;;;;5076172;28;20433;-94
2023/11/19 17:57:41;;;;;;;1.37;1.00;;;22.40;67.40;;;;;;5075802;28;20502;-92
2023/11/19 18:00:13;;;;;;;2.60;1.17;;;22.40;67.50;;;;;;5076163;28;20794;-92
2023/11/19 18:02:42;;;;;;;1.70;1.20;;;22.40;67.40;;;;;;5075079;28;20523;-94
2023/11/19 18:05:10;;;;;;;1.40;1.10;;;22.40;67.40;;;;;;5075997;28;20441;-92
2023/11/19 18:07:37;;;;;;;1.93;1.07;;;22.40;67.40;;;;;;5075899;28;20949;-92
2023/11/19 18:10:06;;;;;;;2.50;1.20;;;22.40;67.40;;;;;;5076234;28;20471;-94
2023/11/19 18:12:34;;;;;;;1.37;1.00;;;22.40;67.40;;;;;;5075444;28;20448;-94
2023/11/19 18:15:03;;;;;;;3.50;1.40;;;22.40;67.40;;;;;;5075695;28;20985;-95
2023/11/19 18:17:30;;;;;;;2.00;1.27;;;22.40;67.40;;;;;;5075679;28;20915;-94
2023/11/19 18:19:57;;;;;;;1.30;1.00;;;22.40;67.40;;;;;;5075403;28;20463;-92
2023/11/19 18:22:24;;;;;;;1.67;1.30;;;22.40;67.50;;;;;;5075556;28;20468;-92
2023/11/19 18:24:51;;;;;;;1.87;1.27;;;22.30;67.40;;;;;;5075567;28;20444;-94
2023/11/19 18:27:19;;;;;;;1.70;1.03;;;22.40;67.60;;;;;;5075773;28;20783;-96
2023/11/19 18:29:46;;;;;;;2.13;1.10;;;22.30;67.50;;;;;;5075506;28;20484;-94
2023/11/19 18:32:14;;;;;;;1.87;1.20;;;22.30;67.60;;;;;;5075644;28;20531;-94
2023/11/19 18:34:41;;;;;;;2.10;1.20;;;22.30;67.60;;;;;;5075512;28;20446;-92
2023/11/19 18:37:08;;;;;;;2.13;1.27;;;22.40;68.50;;;;;;5075311;28;20497;-91
2023/11/19 18:39:35;;;;;;;2.90;1.20;;;22.30;67.60;;;;;;5075180;28;20441;-94
2023/11/19 18:42:02;;;;;;;1.60;1.30;;;22.30;67.60;;;;;;5074906;28;21014;-92
2023/11/19 18:44:29;;;;;;;2.80;1.57;;;22.30;67.60;;;;;;5075143;28;20923;-92
2023/11/19 18:46:57;;;;;;;1.53;1.10;;;22.30;67.60;;;;;;5074843;28;20480;-93
2023/11/19 18:49:26;;;;;;;2.13;1.07;;;22.30;67.60;;;;;;5074901;28;20464;-92
2023/11/19 18:51:53;;;;;;;2.80;1.27;;;22.30;67.60;;;;;;5074778;28;20475;-95
2023/11/19 18:54:22;;;;;;;1.80;1.40;;;22.30;67.60;;;;;;5074851;28;20451;-94
2023/11/19 18:56:49;;;;;;;3.63;1.30;;;22.30;67.60;;;;;;5074898;28;21002;-92
2023/11/19 18:59:16;;;;;;;1.30;1.03;;;22.40;67.70;;;;;;5074815;28;20868;-94
2023/11/19 19:01:44;;;;;;;2.20;1.80;;;22.30;67.50;;;;;;5074807;28;20451;-92
2023/11/19 19:04:11;;;;;;;2.00;1.10;;;22.30;67.50;;;;;;5074788;28;20487;-94
2023/11/19 19:06:40;;;;;;;1.43;1.20;;;22.40;67.60;;;;;;5074547;28;20878;-93
2023/11/19 19:09:07;;;;;;;1.77;1.33;;;22.40;68.50;;;;;;5075601;28;20482;-95
2023/11/19 19:11:35;;;;;;;2.10;1.00;;;22.30;67.50;;;;;;5074198;28;20571;-94
2023/11/19 19:14:02;;;;;;;1.80;1.20;;;22.30;67.50;;;;;;5074241;28;21013;-92
2023/11/19 19:16:29;;;;;;;1.40;0.90;;;22.40;67.60;;;;;;5074175;28;20993;-92
2023/11/19 19:18:55;;;;;;;1.93;1.20;;;22.40;67.60;;;;;;5074378;28;20447;-94
2023/11/19 19:21:22;;;;;;;2.30;1.20;;;22.40;67.60;;;;;;5074639;28;20433;-92
2023/11/19 19:23:50;;;;;;;2.63;1.13;;;22.40;67.50;;;;;;5074492;28;20444;-94
2023/11/19 19:26:17;;;;;;;2.67;1.20;;;22.40;67.50;;;;;;5074157;28;20447;-92
2023/11/19 19:28:45;;;;;;;1.60;1.30;;;22.40;67.50;;;;;;5074106;28;20440;-95
2023/11/19 19:31:17;;;;;;;1.43;1.10;;;22.40;67.50;;;;;;5073932;28;21006;-93
2023/11/19 19:33:44;;;;;;;2.83;1.17;;;22.40;67.50;;;;;;5074299;28;20448;-95
2023/11/19 19:36:11;;;;;;;2.00;1.20;;;22.40;67.50;;;;;;5073899;28;20449;-92
2023/11/19 19:38:38;;;;;;;1.60;1.30;;;22.30;67.40;;;;;;5074017;28;20999;-95
2023/11/19 19:41:06;;;;;;;1.53;1.20;;;22.30;67.40;;;;;;5074006;28;20440;-94
2023/11/19 19:43:33;;;;;;;2.13;1.10;;;22.30;67.50;;;;;;5074164;28;20539;-92
2023/11/19 19:46:00;;;;;;;1.63;1.10;;;22.30;67.50;;;;;;5074091;28;20444;-94
2023/11/19 19:48:27;;;;;;;1.87;1.53;;;22.30;67.50;;;;;;5073814;28;20447;-95
2023/11/19 19:50:54;;;;;;;1.37;1.00;;;22.30;67.60;;;;;;5073894;28;20480;-95
2023/11/19 19:53:21;;;;;;;1.70;1.60;;;22.30;67.60;;;;;;5073843;28;20535;-95
2023/11/19 19:55:48;;;;;;;1.57;0.93;;;22.30;67.60;;;;;;5073649;28;20551;-93
2023/11/19 19:58:17;;;;;;;1.40;1.20;;;22.30;67.50;;;;;;5073713;28;20536;-95
2023/11/19 20:00:44;;;;;;;1.83;1.00;;;22.30;67.60;;;;;;5073983;28;20456;-92
2023/11/19 20:03:11;;;;;;;1.40;1.00;;;22.30;67.60;;;;;;5073824;28;20445;-94
2023/11/19 20:05:38;;;;;;;2.00;1.10;;;22.30;67.60;;;;;;5074101;28;20445;-93
2023/11/19 20:08:06;;;;;;;1.40;0.90;;;22.30;67.60;;;;;;5074484;28;20448;-94
2023/11/19 20:10:33;;;;;;;2.20;1.20;;;22.30;67.60;;;;;;5069070;28;20851;-90
2023/11/19 20:13:01;;;;;;;1.50;1.10;;;22.30;67.60;;;;;;5033894;28;20454;-88
2023/11/19 20:15:30;;;;;;;2.30;1.60;;;22.30;68.00;;;;;;5033336;28;20616;-91
2023/11/19 20:17:57;;;;;;;4.80;1.13;;;22.30;68.20;;;;;;5034506;28;20806;-89
2023/11/19 20:20:25;;;;;;;2.90;1.37;;;22.30;68.50;;;;;;5053273;28;20553;-92
2023/11/19 20:22:52;;;;;;;4.93;1.60;;;22.40;68.60;;;;;;5053966;28;20801;-90
2023/11/19 20:25:18;;;;;;;2.27;0.90;;;22.40;68.50;;;;;;5058196;28;20437;-87
2023/11/19 20:27:46;;;;;;;4.50;1.50;;;22.50;68.70;;;;;;5060002;28;20440;-87
2023/11/19 20:30:31;;;;;;;5.93;1.20;;;22.50;68.80;;;;;;5062139;28;20447;-93
2023/11/19 20:33:00;;;;;;;1.83;1.37;;;22.50;68.50;;;;;;5067932;28;20780;-92
2023/11/19 20:35:30;;;;;;;6.23;1.17;;;22.50;67.90;;;;;;5066565;28;20464;-94
2023/11/19 20:38:03;;;;;;;1.33;0.90;;;22.50;67.70;;;;;;5061147;28;20441;-92
2023/11/19 20:40:30;;;;;;;5.70;1.17;;;22.50;67.70;;;;;;5064007;28;20452;-89
2023/11/19 20:42:57;;;;;;;10.63;1.30;;;22.60;67.90;;;;;;5056596;28;20446;-88
2023/11/19 20:45:27;;;;;;;2.67;1.00;;;22.50;68.50;;;;;;5039949;28;20438;-95
2023/11/19 20:47:54;;;;;;;1.70;1.20;;;22.50;68.60;;;;;;5040082;28;20803;-94
2023/11/19 20:50:24;;;;;;;1.73;1.30;;;22.60;68.70;;;;;;5039562;28;20572;-96
2023/11/19 20:52:53;;;;;;;2.77;1.40;;;22.60;68.70;;;;;;5039868;28;20509;-90
2023/11/19 20:55:19;;;;;;;2.63;1.20;;;22.70;68.80;;;;;;5039732;28;20449;-96
2023/11/19 20:57:47;;;;;;;3.73;1.40;;;22.70;68.80;;;;;;5039704;28;20537;-89
2023/11/19 21:00:18;;;;;;;2.77;1.00;;;22.70;68.80;;;;;;5042260;28;20438;-89
2023/11/19 21:02:45;;;;;;;3.97;1.00;;;22.70;68.80;;;;;;5040382;28;20450;-89
2023/11/19 21:05:12;;;;;;;1.70;1.20;;;22.70;68.70;;;;;;5041532;28;20437;-89
2023/11/19 21:07:40;;;;;;;1.30;0.80;;;22.80;68.80;;;;;;5040510;28;20450;-89
2023/11/19 21:10:08;;;;;;;1.50;1.07;;;22.80;68.80;;;;;;5040705;28;20810;-89
2023/11/19 21:12:35;;;;;;;2.27;1.10;;;22.80;68.80;;;;;;5060085;28;20441;-89
2023/11/19 21:15:01;;;;;;;1.63;1.10;;;22.80;68.90;;;;;;5066130;28;20460;-88
2023/11/19 21:17:28;;;;;;;2.70;1.07;;;22.80;68.90;;;;;;5079714;28;20463;-88
2023/11/19 21:19:55;;;;;;;1.40;1.10;;;22.80;68.90;;;;;;5079764;28;20462;-88
2023/11/19 21:22:22;;;;;;;1.40;1.20;;;22.80;68.90;;;;;;5074831;28;20448;-88
2023/11/19 21:24:51;;;;;;;1.80;1.30;;;22.80;69.00;;;;;;5080336;28;20444;-88
2023/11/19 21:27:18;;;;;;;2.50;1.37;;;22.90;69.10;;;;;;5062813;28;21279;-87
2023/11/19 21:29:45;;;;;;;3.30;1.10;;;22.90;69.90;;;;;;5078188;28;20440;-88
2023/11/19 21:32:12;;;;;;;1.40;0.93;;;22.90;69.00;;;;;;5078611;28;21046;-88
2023/11/19 21:34:40;;;;;;;1.70;1.10;;;22.90;68.90;;;;;;5080943;28;20428;-89
2023/11/19 21:37:08;;;;;;;1.37;0.80;;;22.90;69.00;;;;;;5075195;28;20444;-89
2023/11/19 21:39:35;;;;;;;1.70;1.20;;;22.90;69.00;;;;;;5076305;28;20464;-86
2023/11/19 21:42:04;;;;;;;1.20;0.90;;;22.90;68.80;;;;;;5075803;28;20953;-86
2023/11/19 21:44:30;;;;;;;1.50;1.10;;;23.00;68.00;;;;;;5075980;28;20455;-86
2023/11/19 21:46:58;;;;;;;1.57;0.97;;;23.00;68.60;;;;;;5075632;28;20447;-86
2023/11/19 21:49:25;;;;;;;2.10;1.20;;;22.90;68.70;;;;;;5075931;28;20467;-93
2023/11/19 21:51:52;;;;;;;1.70;1.20;;;22.90;68.90;;;;;;5075722;28;21002;-86
2023/11/19 21:54:18;;;;;;;1.30;1.00;;;22.90;68.80;;;;;;5076118;28;20807;-87
2023/11/19 21:56:45;;;;;;;1.53;1.00;;;22.90;68.70;;;;;;5075585;28;20440;-87
2023/11/19 21:59:13;;;;;;;1.87;1.20;;;22.90;68.70;;;;;;5075829;28;20438;-86
2023/11/19 22:01:40;;;;;;;1.80;1.00;;;22.90;68.70;;;;;;5075644;28;20468;-86
2023/11/19 22:04:07;;;;;;;1.30;0.90;;;22.90;68.70;;;;;;5075517;28;20447;-86
2023/11/19 22:06:35;;;;;;;2.33;1.10;;;22.90;68.70;;;;;;5075763;28;20498;-86
2023/11/19 22:09:02;;;;;;;2.13;1.00;;;22.90;68.70;;;;;;5075451;28;20451;-86
2023/11/19 22:11:29;;;;;;;2.03;1.00;;;22.90;68.70;;;;;;5075479;28;20555;-93
2023/11/19 22:13:56;;;;;;;3.53;1.50;;;22.90;68.60;;;;;;5076231;28;20440;-86
2023/11/19 22:16:24;;;;;;;2.37;1.00;;;22.90;68.70;;;;;;5075712;28;20825;-87
2023/11/19 22:18:52;;;;;;;2.10;1.10;;;22.90;68.70;;;;;;5075621;28;20442;-86
2023/11/19 22:21:18;;;;;;;1.63;1.10;;;22.90;68.70;;;;;;5075194;28;20483;-86
2023/11/19 22:23:45;;;;;;;2.33;0.87;;;22.90;68.70;;;;;;5075589;28;20445;-86
2023/11/19 22:26:12;;;;;;;2.53;1.07;;;22.80;68.60;;;;;;5075024;28;20440;-86
2023/11/19 22:28:40;;;;;;;1.10;0.80;;;22.90;68.80;;;;;;5075274;28;20791;-86
2023/11/19 22:31:07;;;;;;;1.30;0.93;;;22.80;68.70;;;;;;5075235;28;20504;-86
2023/11/19 22:33:35;;;;;;;1.77;0.97;;;22.90;68.90;;;;;;5075389;28;20464;-86
2023/11/19 22:36:02;;;;;;;2.07;0.90;;;22.80;68.70;;;;;;5074988;28;20444;-86
2023/11/19 22:38:29;;;;;;;1.40;1.13;;;22.80;68.80;;;;;;5075140;28;20527;-86
2023/11/19 22:40:56;;;;;;;1.30;0.90;;;22.80;68.70;;;;;;5075175;28;20432;-86
2023/11/19 22:43:23;;;;;;;2.00;0.90;;;22.80;68.80;;;;;;5074889;28;20870;-86
2023/11/19 22:45:50;;;;;;;1.67;1.10;;;22.80;68.80;;;;;;5075023;28;20439;-86
2023/11/19 22:48:16;;;;;;;1.20;0.93;;;22.70;68.80;;;;;;5074574;28;20495;-86
2023/11/19 22:50:45;;;;;;;1.50;0.97;;;22.70;68.90;;;;;;5074489;28;20993;-86
2023/11/19 22:53:12;;;;;;;1.33;1.10;;;22.70;68.90;;;;;;5075249;28;20447;-86
2023/11/19 22:55:38;;;;;;;1.47;0.90;;;22.70;69.00;;;;;;5074701;28;20440;-86
2023/11/19 22:58:05;;;;;;;1.63;1.17;;;22.70;69.00;;;;;;5074818;28;20865;-86
2023/11/19 23:00:33;;;;;;;1.97;0.90;;;22.70;69.00;;;;;;5074581;28;20441;-86
2023/11/19 23:03:03;;;;;;;1.57;0.80;;;22.60;69.00;;;;;;5074168;28;20432;-86
2023/11/19 23:05:31;;;;;;;1.17;0.87;;;22.60;69.00;;;;;;5074639;28;20433;-87
2023/11/19 23:08:00;;;;;;;2.20;1.27;;;22.60;69.00;;;;;;5074392;28;20448;-86
2023/11/19 23:10:26;;;;;;;1.83;1.17;;;22.60;69.00;;;;;;5075399;28;20444;-86
2023/11/19 23:12:53;;;;;;;1.47;1.10;;;22.60;69.10;;;;;;5074172;28;20476;-86
2023/11/19 23:15:24;;;;;;;1.20;1.00;;;22.60;70.00;;;;;;5064344;28;20837;-86
2023/11/19 23:17:51;;;;;;;1.77;0.80;;;22.60;69.10;;;;;;5054540;28;20524;-86
2023/11/19 23:20:18;;;;;;;1.50;0.80;;;22.60;69.10;;;;;;5053734;28;21010;-86
2023/11/19 23:22:46;;;;;;;2.03;0.80;;;22.60;69.10;;;;;;5053797;28;20437;-86
2023/11/19 23:25:14;;;;;;;1.30;1.10;;;22.60;69.20;;;;;;5053765;28;20494;-86
2023/11/19 23:27:41;;;;;;;1.73;1.00;;;22.60;69.20;;;;;;5053583;28;20440;-86
2023/11/19 23:30:09;;;;;;;1.10;0.80;;;22.50;69.10;;;;;;5053635;28;20802;-86
2023/11/19 23:32:36;;;;;;;1.57;1.00;;;22.50;69.10;;;;;;5053620;28;20814;-93